sensor_id;sensor_type;location;lat;lon;timestamp;temperature;humidity
11264;DHT22;5689;48.798;9.070;2022-09-04T00:02:02;16.60;99.90
11264;DHT22;5689;48.798;9.070;2022-09-04T00:04:41;16.50;99.90
11264;DHT22;5689;48.798;9.070;2022-09-04T00:07:19;16.90;99.90
11264;DHT22;5689;48.798;9.070;2022-09-04T00:10:05;16.50;99.90
11264;DHT22;5689;48.798;9.070;2022-09-04T00:12:47;16.40;99.90
11264;DHT22;5689;48.798;9.070;2022-09-04T00:15:20;16.50;99.90
11264;DHT22;5689;48.798;9.070;2022-09-04T00:17:54;16.30;99.90
11264;DHT22;5689;48.798;9.070;2022-09-04T00:20:33;16.30;99.90
11264;DHT22;5689;48.798;9.070;2022-09-04T00:23:08;16.90;99.90
11264;DHT22;5689;48.798;9.070;2022-09-04T00:25:43;16.10;99.90
11264;DHT22;5689;48.798;9.070;2022-09-04T00:28:18;16.30;99.90
11264;DHT22;5689;48.798;9.070;2022-09-04T00:30:57;15.90;99.90
11264;DHT22;5689;48.798;9.070;2022-09-04T00:33:33;15.90;99.90
11264;DHT22;5689;48.798;9.070;2022-09-04T00:36:05;15.80;99.90
11264;DHT22;5689;48.798;9.070;2022-09-04T00:38:43;15.90;99.90
11264;DHT22;5689;48.798;9.070;2022-09-04T00:41:18;15.90;99.90
11264;DHT22;5689;48.798;9.070;2022-09-04T00:44:06;15.80;99.90
11264;DHT22;5689;48.798;9.070;2022-09-04T00:52:59;15.70;99.90
11264;DHT22;5689;48.798;9.070;2022-09-04T00:55:47;15.70;99.90
11264;DHT22;5689;48.798;9.070;2022-09-04T00:58:29;15.90;99.90
11264;DHT22;5689;48.798;9.070;2022-09-04T01:00:59;16.10;99.90
11264;DHT22;5689;48.798;9.070;2022-09-04T01:03:38;16.00;99.90
11264;DHT22;5689;48.798;9.070;2022-09-04T01:06:23;16.00;99.90
11264;DHT22;5689;48.798;9.070;2022-09-04T01:09:22;15.80;99.90
11264;DHT22;5689;48.798;9.070;2022-09-04T01:12:02;15.80;99.90
11264;DHT22;5689;48.798;9.070;2022-09-04T01:14:39;15.70;99.90
11264;DHT22;5689;48.798;9.070;2022-09-04T01:17:16;15.70;99.90
11264;DHT22;5689;48.798;9.070;2022-09-04T01:19:55;15.80;99.90
11264;DHT22;5689;48.798;9.070;2022-09-04T01:22:54;15.70;99.90
11264;DHT22;5689;48.798;9.070;2022-09-04T01:25:53;15.70;99.90
11264;DHT22;5689;48.798;9.070;2022-09-04T01:28:28;15.70;99.90
11264;DHT22;5689;48.798;9.070;2022-09-04T01:31:06;15.60;99.90
11264;DHT22;5689;48.798;9.070;2022-09-04T01:33:41;15.60;99.90
11264;DHT22;5689;48.798;9.070;2022-09-04T01:36:17;15.50;99.90
11264;DHT22;5689;48.798;9.070;2022-09-04T01:38:51;15.50;99.90
11264;DHT22;5689;48.798;9.070;2022-09-04T01:41:24;15.60;99.90
11264;DHT22;5689;48.798;9.070;2022-09-04T01:43:55;15.70;99.90
11264;DHT22;5689;48.798;9.070;2022-09-04T01:46:33;15.60;99.90
11264;DHT22;5689;48.798;9.070;2022-09-04T01:49:09;15.60;99.90
11264;DHT22;5689;48.798;9.070;2022-09-04T01:51:42;15.50;99.90
11264;DHT22;5689;48.798;9.070;2022-09-04T01:54:21;15.50;99.90
11264;DHT22;5689;48.798;9.070;2022-09-04T01:57:06;15.30;99.90
11264;DHT22;5689;48.798;9.070;2022-09-04T01:59:46;15.40;99.90
11264;DHT22;5689;48.798;9.070;2022-09-04T02:02:23;15.50;99.90
11264;DHT22;5689;48.798;9.070;2022-09-04T02:05:00;15.70;99.90
11264;DHT22;5689;48.798;9.070;2022-09-04T02:07:40;15.70;99.90
11264;DHT22;5689;48.798;9.070;2022-09-04T02:10:21;15.60;99.90
11264;DHT22;5689;48.798;9.070;2022-09-04T02:13:06;15.50;99.90
11264;DHT22;5689;48.798;9.070;2022-09-04T02:15:42;15.50;99.90
11264;DHT22;5689;48.798;9.070;2022-09-04T02:18:21;15.40;99.90
11264;DHT22;5689;48.798;9.070;2022-09-04T02:20:55;15.40;99.90
11264;DHT22;5689;48.798;9.070;2022-09-04T02:23:33;15.30;99.90
11264;DHT22;5689;48.798;9.070;2022-09-04T02:26:11;15.40;99.90
11264;DHT22;5689;48.798;9.070;2022-09-04T02:28:51;15.40;99.90
11264;DHT22;5689;48.798;9.070;2022-09-04T02:31:29;15.30;99.90
11264;DHT22;5689;48.798;9.070;2022-09-04T02:34:06;15.40;99.90
11264;DHT22;5689;48.798;9.070;2022-09-04T02:36:45;15.20;99.90
11264;DHT22;5689;48.798;9.070;2022-09-04T02:39:24;15.00;99.90
11264;DHT22;5689;48.798;9.070;2022-09-04T02:42:01;15.00;99.90
11264;DHT22;5689;48.798;9.070;2022-09-04T02:44:41;15.10;99.90
11264;DHT22;5689;48.798;9.070;2022-09-04T02:47:18;15.20;99.90
11264;DHT22;5689;48.798;9.070;2022-09-04T02:49:58;15.10;99.90
11264;DHT22;5689;48.798;9.070;2022-09-04T02:52:37;15.00;99.90
11264;DHT22;5689;48.798;9.070;2022-09-04T02:55:18;14.90;99.90
11264;DHT22;5689;48.798;9.070;2022-09-04T02:57:59;14.90;99.90
11264;DHT22;5689;48.798;9.070;2022-09-04T03:00:39;14.80;99.90
11264;DHT22;5689;48.798;9.070;2022-09-04T03:03:13;14.80;99.90
11264;DHT22;5689;48.798;9.070;2022-09-04T03:05:49;14.80;99.90
11264;DHT22;5689;48.798;9.070;2022-09-04T03:08:20;14.70;99.90
11264;DHT22;5689;48.798;9.070;2022-09-04T03:10:53;14.50;99.90
11264;DHT22;5689;48.798;9.070;2022-09-04T03:13:29;14.50;99.90
11264;DHT22;5689;48.798;9.070;2022-09-04T03:16:09;14.40;99.90
11264;DHT22;5689;48.798;9.070;2022-09-04T03:19:00;14.50;99.90
11264;DHT22;5689;48.798;9.070;2022-09-04T03:21:34;14.50;99.90
11264;DHT22;5689;48.798;9.070;2022-09-04T03:24:08;14.40;99.90
11264;DHT22;5689;48.798;9.070;2022-09-04T03:26:40;14.40;99.90
11264;DHT22;5689;48.798;9.070;2022-09-04T03:29:14;14.60;99.90
11264;DHT22;5689;48.798;9.070;2022-09-04T03:31:57;14.60;99.90
11264;DHT22;5689;48.798;9.070;2022-09-04T03:34:40;14.60;99.90
11264;DHT22;5689;48.798;9.070;2022-09-04T03:40:16;14.40;99.90
11264;DHT22;5689;48.798;9.070;2022-09-04T03:42:57;14.40;99.90
11264;DHT22;5689;48.798;9.070;2022-09-04T03:45:33;14.40;99.90
11264;DHT22;5689;48.798;9.070;2022-09-04T03:48:15;14.30;99.90
11264;DHT22;5689;48.798;9.070;2022-09-04T03:50:50;14.20;99.90
11264;DHT22;5689;48.798;9.070;2022-09-04T03:53:29;14.20;99.90
11264;DHT22;5689;48.798;9.070;2022-09-04T03:59:07;14.20;99.90
11264;DHT22;5689;48.798;9.070;2022-09-04T04:01:41;14.20;99.90
11264;DHT22;5689;48.798;9.070;2022-09-04T04:04:39;14.20;99.90
11264;DHT22;5689;48.798;9.070;2022-09-04T04:07:19;14.20;99.90
11264;DHT22;5689;48.798;9.070;2022-09-04T04:10:00;14.10;99.90
11264;DHT22;5689;48.798;9.070;2022-09-04T04:12:50;14.20;99.90
11264;DHT22;5689;48.798;9.070;2022-09-04T04:15:31;14.10;99.90
11264;DHT22;5689;48.798;9.070;2022-09-04T04:18:16;14.10;99.90
11264;DHT22;5689;48.798;9.070;2022-09-04T04:20:56;14.00;99.90
11264;DHT22;5689;48.798;9.070;2022-09-04T04:23:57;14.10;99.90
11264;DHT22;5689;48.798;9.070;2022-09-04T04:26:37;14.00;99.90
11264;DHT22;5689;48.798;9.070;2022-09-04T04:29:23;14.00;99.90
11264;DHT22;5689;48.798;9.070;2022-09-04T04:32:16;14.00;99.90
11264;DHT22;5689;48.798;9.070;2022-09-04T04:35:12;13.90;99.90
11264;DHT22;5689;48.798;9.070;2022-09-04T04:37:55;13.80;99.90
11264;DHT22;5689;48.798;9.070;2022-09-04T04:40:40;14.00;99.90
11264;DHT22;5689;48.798;9.070;2022-09-04T04:43:16;14.20;99.90
11264;DHT22;5689;48.798;9.070;2022-09-04T04:45:52;14.00;99.90
11264;DHT22;5689;48.798;9.070;2022-09-04T04:54:59;14.00;99.90
11264;DHT22;5689;48.798;9.070;2022-09-04T04:57:39;14.00;99.90
11264;DHT22;5689;48.798;9.070;2022-09-04T05:00:13;13.90;99.90
11264;DHT22;5689;48.798;9.070;2022-09-04T05:02:55;13.90;99.90
11264;DHT22;5689;48.798;9.070;2022-09-04T05:05:45;14.00;99.90
11264;DHT22;5689;48.798;9.070;2022-09-04T05:08:23;14.20;99.90
11264;DHT22;5689;48.798;9.070;2022-09-04T05:10:58;14.10;99.90
11264;DHT22;5689;48.798;9.070;2022-09-04T05:13:35;14.00;99.90
11264;DHT22;5689;48.798;9.070;2022-09-04T05:16:13;14.00;99.90
11264;DHT22;5689;48.798;9.070;2022-09-04T05:18:51;14.20;99.90
11264;DHT22;5689;48.798;9.070;2022-09-04T05:21:28;14.20;99.90
11264;DHT22;5689;48.798;9.070;2022-09-04T05:24:01;14.10;99.90
11264;DHT22;5689;48.798;9.070;2022-09-04T05:26:40;14.20;99.90
11264;DHT22;5689;48.798;9.070;2022-09-04T05:29:15;14.30;99.90
11264;DHT22;5689;48.798;9.070;2022-09-04T05:31:52;14.20;99.90
11264;DHT22;5689;48.798;9.070;2022-09-04T05:34:28;14.40;99.90
11264;DHT22;5689;48.798;9.070;2022-09-04T05:37:11;14.90;99.90
11264;DHT22;5689;48.798;9.070;2022-09-04T05:39:48;15.30;99.90
11264;DHT22;5689;48.798;9.070;2022-09-04T05:42:40;15.70;99.90
11264;DHT22;5689;48.798;9.070;2022-09-04T05:45:15;16.10;99.90
11264;DHT22;5689;48.798;9.070;2022-09-04T05:48:03;16.30;99.90
11264;DHT22;5689;48.798;9.070;2022-09-04T05:50:52;16.80;99.90
11264;DHT22;5689;48.798;9.070;2022-09-04T05:56:49;18.10;99.90
11264;DHT22;5689;48.798;9.070;2022-09-04T05:59:52;18.80;99.90
11264;DHT22;5689;48.798;9.070;2022-09-04T06:02:50;19.20;99.90
11264;DHT22;5689;48.798;9.070;2022-09-04T06:05:28;19.70;99.90
11264;DHT22;5689;48.798;9.070;2022-09-04T06:08:03;20.40;99.90
11264;DHT22;5689;48.798;9.070;2022-09-04T06:10:46;21.10;99.90
11264;DHT22;5689;48.798;9.070;2022-09-04T06:16:38;22.30;99.90
11264;DHT22;5689;48.798;9.070;2022-09-04T06:19:31;22.40;99.90
11264;DHT22;5689;48.798;9.070;2022-09-04T06:22:14;22.30;99.90
11264;DHT22;5689;48.798;9.070;2022-09-04T06:25:07;22.20;99.90
11264;DHT22;5689;48.798;9.070;2022-09-04T06:27:53;23.30;99.90
11264;DHT22;5689;48.798;9.070;2022-09-04T06:33:28;23.10;99.90
11264;DHT22;5689;48.798;9.070;2022-09-04T06:36:12;22.30;99.90
11264;DHT22;5689;48.798;9.070;2022-09-04T06:39:07;23.20;99.90
11264;DHT22;5689;48.798;9.070;2022-09-04T06:41:49;23.50;99.90
11264;DHT22;5689;48.798;9.070;2022-09-04T06:44:32;24.20;99.90
11264;DHT22;5689;48.798;9.070;2022-09-04T06:47:10;24.60;99.90
11264;DHT22;5689;48.798;9.070;2022-09-04T06:49:59;24.70;99.90
11264;DHT22;5689;48.798;9.070;2022-09-04T06:52:36;24.20;99.90
11264;DHT22;5689;48.798;9.070;2022-09-04T06:55:12;23.70;99.90
11264;DHT22;5689;48.798;9.070;2022-09-04T06:57:57;23.50;99.90
11264;DHT22;5689;48.798;9.070;2022-09-04T07:00:32;24.00;99.90
11264;DHT22;5689;48.798;9.070;2022-09-04T07:03:26;25.20;99.90
11264;DHT22;5689;48.798;9.070;2022-09-04T07:06:02;25.50;99.90
11264;DHT22;5689;48.798;9.070;2022-09-04T07:08:41;24.80;99.90
11264;DHT22;5689;48.798;9.070;2022-09-04T07:11:18;25.80;99.90
11264;DHT22;5689;48.798;9.070;2022-09-04T07:14:13;26.20;99.90
11264;DHT22;5689;48.798;9.070;2022-09-04T07:16:53;25.40;99.90
11264;DHT22;5689;48.798;9.070;2022-09-04T07:19:39;25.80;99.90
11264;DHT22;5689;48.798;9.070;2022-09-04T07:22:31;26.20;99.90
11264;DHT22;5689;48.798;9.070;2022-09-04T07:25:10;27.10;99.90
11264;DHT22;5689;48.798;9.070;2022-09-04T07:28:01;26.80;99.90
11264;DHT22;5689;48.798;9.070;2022-09-04T07:30:40;28.10;99.90
11264;DHT22;5689;48.798;9.070;2022-09-04T07:33:14;29.50;99.90
11264;DHT22;5689;48.798;9.070;2022-09-04T07:35:51;29.60;99.90
11264;DHT22;5689;48.798;9.070;2022-09-04T07:38:27;29.10;99.90
11264;DHT22;5689;48.798;9.070;2022-09-04T07:41:05;29.40;99.90
11264;DHT22;5689;48.798;9.070;2022-09-04T07:43:41;30.70;98.10
11264;DHT22;5689;48.798;9.070;2022-09-04T07:46:16;31.30;95.80
11264;DHT22;5689;48.798;9.070;2022-09-04T07:48:51;31.10;93.90
11264;DHT22;5689;48.798;9.070;2022-09-04T07:51:24;31.30;93.30
11264;DHT22;5689;48.798;9.070;2022-09-04T07:54:24;30.50;95.10
11264;DHT22;5689;48.798;9.070;2022-09-04T07:57:19;30.70;94.00
11264;DHT22;5689;48.798;9.070;2022-09-04T08:00:04;30.00;95.40
11264;DHT22;5689;48.798;9.070;2022-09-04T08:02:54;29.60;96.80
11264;DHT22;5689;48.798;9.070;2022-09-04T08:05:29;29.10;97.20
11264;DHT22;5689;48.798;9.070;2022-09-04T08:11:06;30.00;95.90
11264;DHT22;5689;48.798;9.070;2022-09-04T08:14:10;29.30;96.20
11264;DHT22;5689;48.798;9.070;2022-09-04T08:16:54;28.60;96.30
11264;DHT22;5689;48.798;9.070;2022-09-04T08:19:41;29.60;94.40
11264;DHT22;5689;48.798;9.070;2022-09-04T08:22:14;29.60;93.60
11264;DHT22;5689;48.798;9.070;2022-09-04T08:25:00;31.20;91.80
11264;DHT22;5689;48.798;9.070;2022-09-04T08:27:47;30.20;91.30
11264;DHT22;5689;48.798;9.070;2022-09-04T08:30:21;31.50;89.00
11264;DHT22;5689;48.798;9.070;2022-09-04T08:35:53;31.00;90.10
11264;DHT22;5689;48.798;9.070;2022-09-04T08:38:37;29.20;92.20
11264;DHT22;5689;48.798;9.070;2022-09-04T08:44:59;30.90;88.00
11264;DHT22;5689;48.798;9.070;2022-09-04T08:48:04;31.30;87.90
11264;DHT22;5689;48.798;9.070;2022-09-04T08:51:14;30.50;90.70
11264;DHT22;5689;48.798;9.070;2022-09-04T09:00:05;28.60;93.90
11264;DHT22;5689;48.798;9.070;2022-09-04T09:03:10;29.40;92.90
11264;DHT22;5689;48.798;9.070;2022-09-04T09:06:14;29.20;91.80
11264;DHT22;5689;48.798;9.070;2022-09-04T09:18:24;29.20;92.80
11264;DHT22;5689;48.798;9.070;2022-09-04T09:21:05;31.20;90.30
11264;DHT22;5689;48.798;9.070;2022-09-04T09:24:03;32.20;87.10
11264;DHT22;5689;48.798;9.070;2022-09-04T09:26:41;31.80;85.10
11264;DHT22;5689;48.798;9.070;2022-09-04T09:29:35;30.80;88.90
11264;DHT22;5689;48.798;9.070;2022-09-04T09:38:42;31.90;84.40
11264;DHT22;5689;48.798;9.070;2022-09-04T09:41:36;31.50;81.20
11264;DHT22;5689;48.798;9.070;2022-09-04T09:47:48;32.60;82.30
11264;DHT22;5689;48.798;9.070;2022-09-04T09:50:48;33.20;79.80
11264;DHT22;5689;48.798;9.070;2022-09-04T09:53:41;30.00;81.40
11264;DHT22;5689;48.798;9.070;2022-09-04T10:03:19;31.20;81.00
11264;DHT22;5689;48.798;9.070;2022-09-04T10:06:15;33.70;72.70
11264;DHT22;5689;48.798;9.070;2022-09-04T10:15:21;35.40;70.80
11264;DHT22;5689;48.798;9.070;2022-09-04T10:22:05;33.60;72.70
11264;DHT22;5689;48.798;9.070;2022-09-04T10:24:58;32.40;76.50
11264;DHT22;5689;48.798;9.070;2022-09-04T10:30:57;28.90;83.30
11264;DHT22;5689;48.798;9.070;2022-09-04T10:33:33;28.70;82.20
11264;DHT22;5689;48.798;9.070;2022-09-04T10:36:17;27.40;85.90
11264;DHT22;5689;48.798;9.070;2022-09-04T10:39:08;27.60;86.40
11264;DHT22;5689;48.798;9.070;2022-09-04T10:42:14;28.60;84.10
11264;DHT22;5689;48.798;9.070;2022-09-04T10:48:23;33.10;72.80
11264;DHT22;5689;48.798;9.070;2022-09-04T10:51:18;32.20;69.30
11264;DHT22;5689;48.798;9.070;2022-09-04T10:54:10;31.20;74.80
11264;DHT22;5689;48.798;9.070;2022-09-04T10:56:53;33.90;70.10
11264;DHT22;5689;48.798;9.070;2022-09-04T10:59:48;35.30;64.60
11264;DHT22;5689;48.798;9.070;2022-09-04T11:05:39;35.80;59.40
11264;DHT22;5689;48.798;9.070;2022-09-04T11:08:39;32.60;64.90
11264;DHT22;5689;48.798;9.070;2022-09-04T11:11:25;31.40;71.30
11264;DHT22;5689;48.798;9.070;2022-09-04T11:17:21;33.50;68.20
11264;DHT22;5689;48.798;9.070;2022-09-04T11:20:39;35.10;61.90
11264;DHT22;5689;48.798;9.070;2022-09-04T11:29:41;30.60;71.80
11264;DHT22;5689;48.798;9.070;2022-09-04T11:32:33;32.50;71.60
11264;DHT22;5689;48.798;9.070;2022-09-04T11:35:56;33.90;66.20
11264;DHT22;5689;48.798;9.070;2022-09-04T11:45:25;32.90;63.00
11264;DHT22;5689;48.798;9.070;2022-09-04T11:48:17;29.60;73.00
11264;DHT22;5689;48.798;9.070;2022-09-04T11:51:03;29.70;72.00
11264;DHT22;5689;48.798;9.070;2022-09-04T11:53:57;27.80;77.60
11264;DHT22;5689;48.798;9.070;2022-09-04T11:56:48;26.70;80.70
11264;DHT22;5689;48.798;9.070;2022-09-04T11:59:54;26.50;82.20
11264;DHT22;5689;48.798;9.070;2022-09-04T12:02:54;26.40;84.40
11264;DHT22;5689;48.798;9.070;2022-09-04T12:05:37;26.50;84.00
11264;DHT22;5689;48.798;9.070;2022-09-04T12:08:38;25.80;87.20
11264;DHT22;5689;48.798;9.070;2022-09-04T12:11:40;26.60;84.40
11264;DHT22;5689;48.798;9.070;2022-09-04T12:20:36;26.50;85.10
11264;DHT22;5689;48.798;9.070;2022-09-04T12:23:36;26.80;84.80
11264;DHT22;5689;48.798;9.070;2022-09-04T12:26:31;27.20;83.70
11264;DHT22;5689;48.798;9.070;2022-09-04T12:32:37;29.60;76.60
11264;DHT22;5689;48.798;9.070;2022-09-04T12:38:37;29.60;74.90
11264;DHT22;5689;48.798;9.070;2022-09-04T12:41:07;30.50;72.70
11264;DHT22;5689;48.798;9.070;2022-09-04T12:43:52;30.70;73.00
11264;DHT22;5689;48.798;9.070;2022-09-04T12:46:41;32.90;64.10
11264;DHT22;5689;48.798;9.070;2022-09-04T12:49:48;34.10;63.20
11264;DHT22;5689;48.798;9.070;2022-09-04T12:52:34;32.70;66.30
11264;DHT22;5689;48.798;9.070;2022-09-04T12:55:12;32.60;66.00
11264;DHT22;5689;48.798;9.070;2022-09-04T12:57:48;35.40;62.20
11264;DHT22;5689;48.798;9.070;2022-09-04T13:00:18;37.30;57.60
11264;DHT22;5689;48.798;9.070;2022-09-04T13:02:54;35.10;62.20
11264;DHT22;5689;48.798;9.070;2022-09-04T13:05:43;37.70;56.70
11264;DHT22;5689;48.798;9.070;2022-09-04T13:08:21;34.40;59.90
11264;DHT22;5689;48.798;9.070;2022-09-04T13:11:00;36.10;56.50
11264;DHT22;5689;48.798;9.070;2022-09-04T13:13:42;32.20;63.90
11264;DHT22;5689;48.798;9.070;2022-09-04T13:16:18;30.60;67.30
11264;DHT22;5689;48.798;9.070;2022-09-04T13:18:57;32.20;65.30
11264;DHT22;5689;48.798;9.070;2022-09-04T13:21:41;32.60;65.00
11264;DHT22;5689;48.798;9.070;2022-09-04T13:24:24;33.10;62.70
11264;DHT22;5689;48.798;9.070;2022-09-04T13:30:05;34.20;60.40
11264;DHT22;5689;48.798;9.070;2022-09-04T13:35:52;39.30;53.90
11264;DHT22;5689;48.798;9.070;2022-09-04T13:38:34;39.40;51.30
11264;DHT22;5689;48.798;9.070;2022-09-04T13:41:18;35.80;55.70
11264;DHT22;5689;48.798;9.070;2022-09-04T13:44:07;37.40;54.80
11264;DHT22;5689;48.798;9.070;2022-09-04T13:46:47;38.60;51.60
11264;DHT22;5689;48.798;9.070;2022-09-04T13:49:25;37.60;53.80
11264;DHT22;5689;48.798;9.070;2022-09-04T13:52:01;33.70;58.30
11264;DHT22;5689;48.798;9.070;2022-09-04T13:54:36;33.10;59.50
11264;DHT22;5689;48.798;9.070;2022-09-04T13:57:10;32.50;61.80
11264;DHT22;5689;48.798;9.070;2022-09-04T13:59:43;33.20;59.70
11264;DHT22;5689;48.798;9.070;2022-09-04T14:02:17;35.30;55.60
11264;DHT22;5689;48.798;9.070;2022-09-04T14:04:52;34.90;57.00
11264;DHT22;5689;48.798;9.070;2022-09-04T14:07:24;33.40;59.80
11264;DHT22;5689;48.798;9.070;2022-09-04T14:09:59;32.10;61.90
11264;DHT22;5689;48.798;9.070;2022-09-04T14:12:54;31.80;60.50
11264;DHT22;5689;48.798;9.070;2022-09-04T14:21:36;28.90;67.70
11264;DHT22;5689;48.798;9.070;2022-09-04T14:24:15;32.60;62.40
11264;DHT22;5689;48.798;9.070;2022-09-04T14:26:52;32.90;60.50
11264;DHT22;5689;48.798;9.070;2022-09-04T14:29:27;35.00;57.20
11264;DHT22;5689;48.798;9.070;2022-09-04T14:32:10;35.70;55.60
11264;DHT22;5689;48.798;9.070;2022-09-04T14:34:49;38.10;51.90
11264;DHT22;5689;48.798;9.070;2022-09-04T14:37:35;37.10;51.80
11264;DHT22;5689;48.798;9.070;2022-09-04T14:40:15;33.00;58.50
11264;DHT22;5689;48.798;9.070;2022-09-04T14:42:52;34.20;55.60
11264;DHT22;5689;48.798;9.070;2022-09-04T14:45:43;34.00;57.20
11264;DHT22;5689;48.798;9.070;2022-09-04T14:48:17;33.30;58.60
11264;DHT22;5689;48.798;9.070;2022-09-04T14:50:53;34.80;55.20
11264;DHT22;5689;48.798;9.070;2022-09-04T14:53:25;36.50;52.90
11264;DHT22;5689;48.798;9.070;2022-09-04T14:56:18;38.20;51.60
11264;DHT22;5689;48.798;9.070;2022-09-04T14:58:51;39.50;49.80
11264;DHT22;5689;48.798;9.070;2022-09-04T15:01:23;38.00;49.90
11264;DHT22;5689;48.798;9.070;2022-09-04T15:03:55;36.40;52.00
11264;DHT22;5689;48.798;9.070;2022-09-04T15:06:29;35.90;52.20
11264;DHT22;5689;48.798;9.070;2022-09-04T15:09:23;36.60;51.40
11264;DHT22;5689;48.798;9.070;2022-09-04T15:11:53;35.80;52.00
11264;DHT22;5689;48.798;9.070;2022-09-04T15:14:35;34.50;53.20
11264;DHT22;5689;48.798;9.070;2022-09-04T15:17:09;35.10;53.70
11264;DHT22;5689;48.798;9.070;2022-09-04T15:19:44;34.70;54.60
11264;DHT22;5689;48.798;9.070;2022-09-04T15:22:20;35.40;53.50
11264;DHT22;5689;48.798;9.070;2022-09-04T15:24:56;35.90;51.60
11264;DHT22;5689;48.798;9.070;2022-09-04T15:27:30;35.60;51.90
11264;DHT22;5689;48.798;9.070;2022-09-04T15:30:06;35.70;52.50
11264;DHT22;5689;48.798;9.070;2022-09-04T15:32:38;36.60;51.80
11264;DHT22;5689;48.798;9.070;2022-09-04T15:35:19;37.20;51.30
11264;DHT22;5689;48.798;9.070;2022-09-04T15:37:51;37.50;49.90
11264;DHT22;5689;48.798;9.070;2022-09-04T15:40:33;35.30;51.70
11264;DHT22;5689;48.798;9.070;2022-09-04T15:43:11;35.50;52.20
11264;DHT22;5689;48.798;9.070;2022-09-04T15:45:45;34.70;52.40
11264;DHT22;5689;48.798;9.070;2022-09-04T15:48:24;33.30;54.60
11264;DHT22;5689;48.798;9.070;2022-09-04T15:51:01;34.10;53.80
11264;DHT22;5689;48.798;9.070;2022-09-04T15:53:34;34.70;52.50
11264;DHT22;5689;48.798;9.070;2022-09-04T15:56:05;35.60;53.40
11264;DHT22;5689;48.798;9.070;2022-09-04T15:58:47;35.60;51.80
11264;DHT22;5689;48.798;9.070;2022-09-04T16:01:22;36.10;51.10
11264;DHT22;5689;48.798;9.070;2022-09-04T16:04:02;35.90;50.60
11264;DHT22;5689;48.798;9.070;2022-09-04T16:06:41;36.60;50.50
11264;DHT22;5689;48.798;9.070;2022-09-04T16:09:24;36.70;50.00
11264;DHT22;5689;48.798;9.070;2022-09-04T16:12:01;36.00;51.30
11264;DHT22;5689;48.798;9.070;2022-09-04T16:14:36;32.90;55.20
11264;DHT22;5689;48.798;9.070;2022-09-04T16:17:10;31.70;58.40
11264;DHT22;5689;48.798;9.070;2022-09-04T16:19:44;32.10;58.10
11264;DHT22;5689;48.798;9.070;2022-09-04T16:22:22;34.10;56.00
11264;DHT22;5689;48.798;9.070;2022-09-04T16:25:04;34.40;54.40
11264;DHT22;5689;48.798;9.070;2022-09-04T16:27:41;34.70;54.80
11264;DHT22;5689;48.798;9.070;2022-09-04T16:30:25;33.90;55.30
11264;DHT22;5689;48.798;9.070;2022-09-04T16:32:56;31.40;58.80
11264;DHT22;5689;48.798;9.070;2022-09-04T16:35:26;29.30;62.60
11264;DHT22;5689;48.798;9.070;2022-09-04T16:38:04;28.30;65.20
11264;DHT22;5689;48.798;9.070;2022-09-04T16:40:38;27.50;67.70
11264;DHT22;5689;48.798;9.070;2022-09-04T16:43:17;26.80;70.40
11264;DHT22;5689;48.798;9.070;2022-09-04T16:45:50;26.60;70.80
11264;DHT22;5689;48.798;9.070;2022-09-04T16:48:24;26.30;71.10
11264;DHT22;5689;48.798;9.070;2022-09-04T16:51:00;26.10;72.70
11264;DHT22;5689;48.798;9.070;2022-09-04T16:53:35;25.80;73.50
11264;DHT22;5689;48.798;9.070;2022-09-04T16:56:18;25.90;74.10
11264;DHT22;5689;48.798;9.070;2022-09-04T16:58:51;25.60;74.90
11264;DHT22;5689;48.798;9.070;2022-09-04T17:01:26;25.70;74.50
11264;DHT22;5689;48.798;9.070;2022-09-04T17:04:08;25.90;74.40
11264;DHT22;5689;48.798;9.070;2022-09-04T17:06:48;25.60;75.50
11264;DHT22;5689;48.798;9.070;2022-09-04T17:09:25;25.60;75.50
11264;DHT22;5689;48.798;9.070;2022-09-04T17:12:01;25.60;76.10
11264;DHT22;5689;48.798;9.070;2022-09-04T17:14:35;25.40;76.20
11264;DHT22;5689;48.798;9.070;2022-09-04T17:17:11;25.40;75.90
11264;DHT22;5689;48.798;9.070;2022-09-04T17:19:40;25.50;77.90
11264;DHT22;5689;48.798;9.070;2022-09-04T17:22:14;25.00;82.10
11264;DHT22;5689;48.798;9.070;2022-09-04T17:25:11;25.00;82.80
11264;DHT22;5689;48.798;9.070;2022-09-04T17:27:47;24.50;85.40
11264;DHT22;5689;48.798;9.070;2022-09-04T17:30:26;24.20;86.10
11264;DHT22;5689;48.798;9.070;2022-09-04T17:32:59;24.20;87.10
11264;DHT22;5689;48.798;9.070;2022-09-04T17:35:33;24.40;87.00
11264;DHT22;5689;48.798;9.070;2022-09-04T17:38:09;24.40;86.80
11264;DHT22;5689;48.798;9.070;2022-09-04T17:40:56;24.20;88.00
11264;DHT22;5689;48.798;9.070;2022-09-04T17:43:36;24.00;90.00
11264;DHT22;5689;48.798;9.070;2022-09-04T17:46:15;23.90;90.30
11264;DHT22;5689;48.798;9.070;2022-09-04T17:48:52;23.80;90.40
11264;DHT22;5689;48.798;9.070;2022-09-04T17:51:22;23.60;91.30
11264;DHT22;5689;48.798;9.070;2022-09-04T17:53:54;23.40;92.10
11264;DHT22;5689;48.798;9.070;2022-09-04T17:56:27;23.30;92.50
11264;DHT22;5689;48.798;9.070;2022-09-04T17:59:03;23.10;92.50
11264;DHT22;5689;48.798;9.070;2022-09-04T18:01:38;23.10;92.80
11264;DHT22;5689;48.798;9.070;2022-09-04T18:04:24;22.90;93.00
11264;DHT22;5689;48.798;9.070;2022-09-04T18:07:00;22.80;93.70
11264;DHT22;5689;48.798;9.070;2022-09-04T18:09:38;22.80;93.60
11264;DHT22;5689;48.798;9.070;2022-09-04T18:12:16;22.70;94.10
11264;DHT22;5689;48.798;9.070;2022-09-04T18:14:54;22.60;94.20
11264;DHT22;5689;48.798;9.070;2022-09-04T18:17:35;22.50;94.70
11264;DHT22;5689;48.798;9.070;2022-09-04T18:20:14;22.50;94.60
11264;DHT22;5689;48.798;9.070;2022-09-04T18:25:54;22.30;95.30
11264;DHT22;5689;48.798;9.070;2022-09-04T18:28:31;22.20;95.60
11264;DHT22;5689;48.798;9.070;2022-09-04T18:31:07;22.10;95.70
11264;DHT22;5689;48.798;9.070;2022-09-04T18:33:41;22.00;96.20
11264;DHT22;5689;48.798;9.070;2022-09-04T18:36:16;22.00;97.00
11264;DHT22;5689;48.798;9.070;2022-09-04T18:38:58;22.00;96.50
11264;DHT22;5689;48.798;9.070;2022-09-04T18:41:31;22.00;96.60
11264;DHT22;5689;48.798;9.070;2022-09-04T18:44:05;21.90;97.00
11264;DHT22;5689;48.798;9.070;2022-09-04T18:46:35;21.70;97.50
11264;DHT22;5689;48.798;9.070;2022-09-04T18:49:05;21.60;97.80
11264;DHT22;5689;48.798;9.070;2022-09-04T18:51:40;21.60;98.00
11264;DHT22;5689;48.798;9.070;2022-09-04T18:54:21;21.50;98.40
11264;DHT22;5689;48.798;9.070;2022-09-04T18:56:53;21.40;99.00
11264;DHT22;5689;48.798;9.070;2022-09-04T18:59:25;21.20;99.90
11264;DHT22;5689;48.798;9.070;2022-09-04T19:02:01;21.10;99.90
11264;DHT22;5689;48.798;9.070;2022-09-04T19:04:42;21.10;99.90
11264;DHT22;5689;48.798;9.070;2022-09-04T19:07:19;21.10;99.90
11264;DHT22;5689;48.798;9.070;2022-09-04T19:10:10;21.20;99.90
11264;DHT22;5689;48.798;9.070;2022-09-04T19:12:51;21.40;99.90
11264;DHT22;5689;48.798;9.070;2022-09-04T19:15:34;21.30;99.90
11264;DHT22;5689;48.798;9.070;2022-09-04T19:18:12;20.90;99.90
11264;DHT22;5689;48.798;9.070;2022-09-04T19:20:45;20.90;99.90
11264;DHT22;5689;48.798;9.070;2022-09-04T19:23:22;20.80;99.90
11264;DHT22;5689;48.798;9.070;2022-09-04T19:25:53;20.70;99.90
11264;DHT22;5689;48.798;9.070;2022-09-04T19:28:27;20.70;99.90